sensor_id;sensor_type;location;lat;lon;timestamp;pressure;altitude;pressure_sealevel;temperature;humidity
10466;BME280;5280;42.600;23.556;2022-12-18T00:00:43;94101.84;;;7.53;100.00
10466;BME280;5280;42.600;23.556;2022-12-18T00:03:11;94109.81;;;7.52;100.00
10466;BME280;5280;42.600;23.556;2022-12-18T00:05:46;94121.16;;;7.52;100.00
10466;BME280;5280;42.600;23.556;2022-12-18T00:08:13;94117.88;;;7.49;100.00
10466;BME280;5280;42.600;23.556;2022-12-18T00:10:40;94118.31;;;7.41;100.00
10466;BME280;5280;42.600;23.556;2022-12-18T00:13:06;94128.22;;;7.36;100.00
10466;BME280;5280;42.600;23.556;2022-12-18T00:15:33;94113.19;;;7.22;100.00
10466;BME280;5280;42.600;23.556;2022-12-18T00:18:00;94132.28;;;7.26;100.00
10466;BME280;5280;42.600;23.556;2022-12-18T00:20:28;94107.59;;;7.13;100.00
10466;BME280;5280;42.600;23.556;2022-12-18T00:22:55;94132.44;;;7.23;100.00
10466;BME280;5280;42.600;23.556;2022-12-18T00:25:22;94140.69;;;7.17;100.00
10466;BME280;5280;42.600;23.556;2022-12-18T00:27:49;94139.66;;;7.19;100.00
10466;BME280;5280;42.600;23.556;2022-12-18T00:30:16;94146.19;;;7.12;100.00
10466;BME280;5280;42.600;23.556;2022-12-18T00:32:43;94127.00;;;6.95;100.00
10466;BME280;5280;42.600;23.556;2022-12-18T00:35:10;94137.22;;;6.83;100.00
10466;BME280;5280;42.600;23.556;2022-12-18T00:37:38;94149.50;;;6.83;100.00
10466;BME280;5280;42.600;23.556;2022-12-18T00:40:05;94143.72;;;6.76;100.00
10466;BME280;5280;42.600;23.556;2022-12-18T00:42:35;94158.34;;;6.82;100.00
10466;BME280;5280;42.600;23.556;2022-12-18T00:45:20;94153.53;;;6.73;100.00
10466;BME280;5280;42.600;23.556;2022-12-18T00:47:49;94161.66;;;6.68;100.00
10466;BME280;5280;42.600;23.556;2022-12-18T00:50:16;94162.59;;;6.67;100.00
10466;BME280;5280;42.600;23.556;2022-12-18T00:52:44;94159.50;;;6.59;100.00
10466;BME280;5280;42.600;23.556;2022-12-18T00:55:12;94146.06;;;6.48;100.00
10466;BME280;5280;42.600;23.556;2022-12-18T00:57:39;94157.19;;;6.53;100.00
10466;BME280;5280;42.600;23.556;2022-12-18T01:00:08;94151.19;;;6.51;100.00
10466;BME280;5280;42.600;23.556;2022-12-18T01:02:36;94162.13;;;6.59;100.00
10466;BME280;5280;42.600;23.556;2022-12-18T01:05:04;94149.94;;;6.58;100.00
10466;BME280;5280;42.600;23.556;2022-12-18T01:07:30;94126.94;;;6.29;100.00
10466;BME280;5280;42.600;23.556;2022-12-18T01:09:59;94165.13;;;6.69;100.00
10466;BME280;5280;42.600;23.556;2022-12-18T01:12:26;94176.66;;;6.66;100.00
10466;BME280;5280;42.600;23.556;2022-12-18T01:14:52;94169.56;;;6.51;100.00
10466;BME280;5280;42.600;23.556;2022-12-18T01:17:19;94177.34;;;6.53;100.00
10466;BME280;5280;42.600;23.556;2022-12-18T01:19:46;94174.97;;;6.48;100.00
10466;BME280;5280;42.600;23.556;2022-12-18T01:22:13;94180.69;;;6.39;100.00
10466;BME280;5280;42.600;23.556;2022-12-18T01:24:40;94175.91;;;6.30;100.00
10466;BME280;5280;42.600;23.556;2022-12-18T01:27:11;94186.31;;;6.31;100.00
10466;BME280;5280;42.600;23.556;2022-12-18T01:29:38;94167.94;;;6.14;100.00
10466;BME280;5280;42.600;23.556;2022-12-18T01:32:05;94179.84;;;6.21;100.00
10466;BME280;5280;42.600;23.556;2022-12-18T01:34:32;94171.09;;;6.03;100.00
10466;BME280;5280;42.600;23.556;2022-12-18T01:37:02;94175.69;;;6.17;100.00
10466;BME280;5280;42.600;23.556;2022-12-18T01:39:30;94184.06;;;6.24;100.00
10466;BME280;5280;42.600;23.556;2022-12-18T01:41:57;94184.22;;;6.21;100.00
10466;BME280;5280;42.600;23.556;2022-12-18T01:45:06;94185.63;;;6.11;100.00
10466;BME280;5280;42.600;23.556;2022-12-18T01:47:36;94188.53;;;6.04;100.00
10466;BME280;5280;42.600;23.556;2022-12-18T01:50:09;94194.06;;;5.98;100.00
10466;BME280;5280;42.600;23.556;2022-12-18T01:52:41;94194.00;;;6.00;100.00
10466;BME280;5280;42.600;23.556;2022-12-18T01:55:10;94199.63;;;5.92;100.00
10466;BME280;5280;42.600;23.556;2022-12-18T01:57:38;94193.09;;;5.82;100.00
10466;BME280;5280;42.600;23.556;2022-12-18T02:00:10;94194.94;;;5.80;100.00
10466;BME280;5280;42.600;23.556;2022-12-18T02:02:38;94194.81;;;5.64;100.00
10466;BME280;5280;42.600;23.556;2022-12-18T02:05:07;94188.25;;;5.56;100.00
10466;BME280;5280;42.600;23.556;2022-12-18T02:07:40;94209.16;;;5.57;100.00
10466;BME280;5280;42.600;23.556;2022-12-18T02:10:14;94206.28;;;5.43;100.00
10466;BME280;5280;42.600;23.556;2022-12-18T02:12:48;94180.69;;;5.31;100.00
10466;BME280;5280;42.600;23.556;2022-12-18T02:15:25;94214.38;;;5.39;100.00
10466;BME280;5280;42.600;23.556;2022-12-18T02:17:56;94224.09;;;5.37;100.00
10466;BME280;5280;42.600;23.556;2022-12-18T02:20:31;94227.00;;;5.31;100.00
10466;BME280;5280;42.600;23.556;2022-12-18T02:23:06;94197.63;;;5.04;100.00
10466;BME280;5280;42.600;23.556;2022-12-18T02:25:51;94228.69;;;5.32;100.00
10466;BME280;5280;42.600;23.556;2022-12-18T02:28:20;94191.44;;;5.06;100.00
10466;BME280;5280;42.600;23.556;2022-12-18T02:30:51;94201.19;;;5.03;100.00
10466;BME280;5280;42.600;23.556;2022-12-18T02:33:25;94236.25;;;5.19;100.00
10466;BME280;5280;42.600;23.556;2022-12-18T02:35:54;94238.38;;;5.11;100.00
10466;BME280;5280;42.600;23.556;2022-12-18T02:38:23;94241.25;;;5.05;100.00
10466;BME280;5280;42.600;23.556;2022-12-18T02:40:53;94232.06;;;4.96;100.00
10466;BME280;5280;42.600;23.556;2022-12-18T02:43:20;94242.06;;;5.07;100.00
10466;BME280;5280;42.600;23.556;2022-12-18T02:45:49;94250.69;;;5.09;100.00
10466;BME280;5280;42.600;23.556;2022-12-18T02:48:17;94238.84;;;5.00;100.00
10466;BME280;5280;42.600;23.556;2022-12-18T02:50:57;94240.41;;;5.04;100.00
10466;BME280;5280;42.600;23.556;2022-12-18T02:53:30;94161.81;;;4.47;100.00
10466;BME280;5280;42.600;23.556;2022-12-18T02:56:05;94245.22;;;5.13;100.00
10466;BME280;5280;42.600;23.556;2022-12-18T02:58:39;94251.25;;;5.15;100.00
10466;BME280;5280;42.600;23.556;2022-12-18T03:01:12;94249.00;;;5.08;100.00
10466;BME280;5280;42.600;23.556;2022-12-18T03:03:46;94235.56;;;4.95;100.00
10466;BME280;5280;42.600;23.556;2022-12-18T03:06:20;94247.34;;;5.05;100.00
10466;BME280;5280;42.600;23.556;2022-12-18T03:08:51;94230.19;;;4.98;100.00
10466;BME280;5280;42.600;23.556;2022-12-18T03:11:21;94256.78;;;5.09;100.00
10466;BME280;5280;42.600;23.556;2022-12-18T03:14:06;94255.56;;;4.98;100.00
10466;BME280;5280;42.600;23.556;2022-12-18T03:16:35;94224.06;;;4.79;100.00
10466;BME280;5280;42.600;23.556;2022-12-18T03:19:05;94229.19;;;4.82;100.00
10466;BME280;5280;42.600;23.556;2022-12-18T03:21:37;94259.94;;;4.97;100.00
10466;BME280;5280;42.600;23.556;2022-12-18T03:24:07;94261.38;;;5.04;100.00
10466;BME280;5280;42.600;23.556;2022-12-18T03:26:41;94270.94;;;4.85;100.00
10466;BME280;5280;42.600;23.556;2022-12-18T03:29:13;94267.16;;;4.92;100.00
10466;BME280;5280;42.600;23.556;2022-12-18T03:31:45;94198.19;;;4.53;100.00
10466;BME280;5280;42.600;23.556;2022-12-18T03:34:16;94270.69;;;4.91;100.00
10466;BME280;5280;42.600;23.556;2022-12-18T03:36:46;94283.97;;;4.87;100.00
10466;BME280;5280;42.600;23.556;2022-12-18T03:39:13;94230.75;;;4.46;100.00
10466;BME280;5280;42.600;23.556;2022-12-18T03:41:44;94285.88;;;4.83;100.00
10466;BME280;5280;42.600;23.556;2022-12-18T03:44:17;94229.84;;;4.47;100.00
10466;BME280;5280;42.600;23.556;2022-12-18T03:46:53;94287.75;;;4.80;100.00
10466;BME280;5280;42.600;23.556;2022-12-18T03:49:25;94279.41;;;4.71;100.00
10466;BME280;5280;42.600;23.556;2022-12-18T03:51:59;94296.41;;;4.82;100.00
10466;BME280;5280;42.600;23.556;2022-12-18T03:54:30;94296.72;;;4.74;100.00
10466;BME280;5280;42.600;23.556;2022-12-18T03:57:03;94282.06;;;4.70;100.00
10466;BME280;5280;42.600;23.556;2022-12-18T03:59:32;94306.44;;;4.72;100.00
10466;BME280;5280;42.600;23.556;2022-12-18T04:02:00;94307.28;;;4.72;100.00
10466;BME280;5280;42.600;23.556;2022-12-18T04:04:28;94305.88;;;4.64;100.00
10466;BME280;5280;42.600;23.556;2022-12-18T04:06:58;94208.06;;;4.04;100.00
10466;BME280;5280;42.600;23.556;2022-12-18T04:09:25;94289.81;;;4.53;100.00
10466;BME280;5280;42.600;23.556;2022-12-18T04:11:52;94302.31;;;4.66;100.00
10466;BME280;5280;42.600;23.556;2022-12-18T04:14:20;94317.88;;;4.69;100.00
10466;BME280;5280;42.600;23.556;2022-12-18T04:16:47;94313.88;;;4.61;100.00
10466;BME280;5280;42.600;23.556;2022-12-18T04:19:14;94307.19;;;4.54;100.00
10466;BME280;5280;42.600;23.556;2022-12-18T04:21:41;94319.50;;;4.52;100.00
10466;BME280;5280;42.600;23.556;2022-12-18T04:24:08;94325.44;;;4.55;100.00
10466;BME280;5280;42.600;23.556;2022-12-18T04:26:35;94340.44;;;4.52;100.00
10466;BME280;5280;42.600;23.556;2022-12-18T04:29:02;94342.16;;;4.53;100.00
10466;BME280;5280;42.600;23.556;2022-12-18T04:31:30;94344.09;;;4.48;100.00
10466;BME280;5280;42.600;23.556;2022-12-18T04:33:57;94331.34;;;4.39;100.00
10466;BME280;5280;42.600;23.556;2022-12-18T04:36:24;94356.13;;;4.52;100.00
10466;BME280;5280;42.600;23.556;2022-12-18T04:38:53;94344.88;;;4.50;100.00
10466;BME280;5280;42.600;23.556;2022-12-18T04:41:20;94336.50;;;4.42;100.00
10466;BME280;5280;42.600;23.556;2022-12-18T04:43:47;94353.56;;;4.50;100.00
10466;BME280;5280;42.600;23.556;2022-12-18T04:46:14;94357.03;;;4.51;100.00
10466;BME280;5280;42.600;23.556;2022-12-18T04:48:45;94359.66;;;4.51;100.00
10466;BME280;5280;42.600;23.556;2022-12-18T04:51:12;94371.84;;;4.52;100.00
10466;BME280;5280;42.600;23.556;2022-12-18T04:53:39;94364.91;;;4.51;100.00
10466;BME280;5280;42.600;23.556;2022-12-18T04:56:08;94382.31;;;4.52;100.00
10466;BME280;5280;42.600;23.556;2022-12-18T04:58:35;94372.31;;;4.40;100.00
10466;BME280;5280;42.600;23.556;2022-12-18T05:01:03;94369.84;;;4.37;100.00
10466;BME280;5280;42.600;23.556;2022-12-18T05:03:30;94390.34;;;4.47;100.00
10466;BME280;5280;42.600;23.556;2022-12-18T05:05:58;94391.06;;;4.51;100.00
10466;BME280;5280;42.600;23.556;2022-12-18T05:08:25;94359.66;;;4.29;100.00
10466;BME280;5280;42.600;23.556;2022-12-18T05:10:58;94378.72;;;4.32;100.00
10466;BME280;5280;42.600;23.556;2022-12-18T05:13:25;94395.28;;;4.33;100.00
10466;BME280;5280;42.600;23.556;2022-12-18T05:15:52;94383.75;;;4.15;100.00
10466;BME280;5280;42.600;23.556;2022-12-18T05:18:19;94404.59;;;4.18;100.00
10466;BME280;5280;42.600;23.556;2022-12-18T05:20:45;94412.53;;;4.15;100.00
10466;BME280;5280;42.600;23.556;2022-12-18T05:23:14;94424.84;;;4.13;100.00
10466;BME280;5280;42.600;23.556;2022-12-18T05:25:41;94395.84;;;3.96;100.00
10466;BME280;5280;42.600;23.556;2022-12-18T05:28:08;94436.28;;;4.09;100.00
10466;BME280;5280;42.600;23.556;2022-12-18T05:30:35;94432.91;;;4.07;100.00
10466;BME280;5280;42.600;23.556;2022-12-18T05:33:02;94434.53;;;4.10;100.00
10466;BME280;5280;42.600;23.556;2022-12-18T05:35:29;94433.84;;;4.05;100.00
10466;BME280;5280;42.600;23.556;2022-12-18T05:37:55;94437.28;;;4.07;100.00
10466;BME280;5280;42.600;23.556;2022-12-18T05:40:23;94432.81;;;4.09;100.00
10466;BME280;5280;42.600;23.556;2022-12-18T05:42:50;94427.09;;;3.99;100.00
10466;BME280;5280;42.600;23.556;2022-12-18T05:45:17;94436.78;;;3.97;100.00
10466;BME280;5280;42.600;23.556;2022-12-18T05:47:44;94429.53;;;3.80;100.00
10466;BME280;5280;42.600;23.556;2022-12-18T05:50:11;94429.31;;;3.86;100.00
10466;BME280;5280;42.600;23.556;2022-12-18T05:52:38;94458.41;;;4.01;100.00
10466;BME280;5280;42.600;23.556;2022-12-18T05:55:05;94385.59;;;3.43;100.00
10466;BME280;5280;42.600;23.556;2022-12-18T05:57:33;94455.06;;;3.97;100.00
10466;BME280;5280;42.600;23.556;2022-12-18T06:00:00;94455.25;;;3.93;100.00
10466;BME280;5280;42.600;23.556;2022-12-18T06:02:27;94464.94;;;3.89;100.00
10466;BME280;5280;42.600;23.556;2022-12-18T06:04:54;94460.81;;;3.83;100.00
10466;BME280;5280;42.600;23.556;2022-12-18T06:07:20;94463.47;;;3.82;100.00
10466;BME280;5280;42.600;23.556;2022-12-18T06:09:48;94459.44;;;3.73;100.00
10466;BME280;5280;42.600;23.556;2022-12-18T06:12:14;94467.13;;;3.78;100.00
10466;BME280;5280;42.600;23.556;2022-12-18T06:14:42;94482.72;;;3.79;100.00
10466;BME280;5280;42.600;23.556;2022-12-18T06:17:09;94470.63;;;3.77;100.00
10466;BME280;5280;42.600;23.556;2022-12-18T06:19:36;94477.97;;;3.90;100.00
10466;BME280;5280;42.600;23.556;2022-12-18T06:22:03;94415.09;;;3.47;100.00
10466;BME280;5280;42.600;23.556;2022-12-18T06:24:30;94475.53;;;3.86;100.00
10466;BME280;5280;42.600;23.556;2022-12-18T06:26:57;94488.38;;;3.92;100.00
10466;BME280;5280;42.600;23.556;2022-12-18T06:29:23;94462.75;;;3.78;100.00
10466;BME280;5280;42.600;23.556;2022-12-18T06:31:52;94484.97;;;3.90;100.00
10466;BME280;5280;42.600;23.556;2022-12-18T06:34:18;94491.34;;;3.83;100.00
10466;BME280;5280;42.600;23.556;2022-12-18T06:36:45;94494.03;;;3.80;100.00
10466;BME280;5280;42.600;23.556;2022-12-18T06:39:12;94510.75;;;3.76;100.00
10466;BME280;5280;42.600;23.556;2022-12-18T06:41:39;94495.03;;;3.77;100.00
10466;BME280;5280;42.600;23.556;2022-12-18T06:44:06;94496.13;;;3.70;100.00
10466;BME280;5280;42.600;23.556;2022-12-18T06:46:33;94500.50;;;3.70;100.00
10466;BME280;5280;42.600;23.556;2022-12-18T06:49:01;94510.88;;;3.73;100.00
10466;BME280;5280;42.600;23.556;2022-12-18T06:51:27;94509.91;;;3.75;100.00
10466;BME280;5280;42.600;23.556;2022-12-18T06:53:54;94518.75;;;3.71;100.00
10466;BME280;5280;42.600;23.556;2022-12-18T06:56:21;94523.81;;;3.76;100.00
10466;BME280;5280;42.600;23.556;2022-12-18T06:58:48;94527.53;;;3.69;100.00
10466;BME280;5280;42.600;23.556;2022-12-18T07:01:17;94492.50;;;3.50;100.00
10466;BME280;5280;42.600;23.556;2022-12-18T07:03:45;94539.56;;;3.74;100.00
10466;BME280;5280;42.600;23.556;2022-12-18T07:06:17;94506.06;;;3.61;100.00
10466;BME280;5280;42.600;23.556;2022-12-18T07:08:45;94524.56;;;3.79;100.00
10466;BME280;5280;42.600;23.556;2022-12-18T07:11:12;94540.91;;;3.86;100.00
10466;BME280;5280;42.600;23.556;2022-12-18T07:13:39;94470.81;;;3.47;100.00
10466;BME280;5280;42.600;23.556;2022-12-18T07:16:11;94534.56;;;3.93;100.00
10466;BME280;5280;42.600;23.556;2022-12-18T07:18:38;94545.97;;;3.90;100.00
10466;BME280;5280;42.600;23.556;2022-12-18T07:21:06;94539.09;;;3.88;100.00
10466;BME280;5280;42.600;23.556;2022-12-18T07:23:35;94543.19;;;3.95;100.00
10466;BME280;5280;42.600;23.556;2022-12-18T07:26:03;94542.97;;;4.01;100.00
10466;BME280;5280;42.600;23.556;2022-12-18T07:28:30;94544.91;;;3.96;100.00
10466;BME280;5280;42.600;23.556;2022-12-18T07:30:57;94547.22;;;4.04;100.00
10466;BME280;5280;42.600;23.556;2022-12-18T07:33:24;94556.94;;;4.00;100.00
10466;BME280;5280;42.600;23.556;2022-12-18T07:35:50;94542.84;;;4.04;100.00
10466;BME280;5280;42.600;23.556;2022-12-18T07:38:18;94455.19;;;3.46;100.00
10466;BME280;5280;42.600;23.556;2022-12-18T07:40:46;94556.31;;;3.94;100.00
10466;BME280;5280;42.600;23.556;2022-12-18T07:43:13;94563.69;;;4.07;100.00
10466;BME280;5280;42.600;23.556;2022-12-18T07:45:39;94531.50;;;3.80;100.00
10466;BME280;5280;42.600;23.556;2022-12-18T07:48:06;94560.22;;;4.07;100.00
10466;BME280;5280;42.600;23.556;2022-12-18T07:50:33;94559.94;;;3.89;100.00
10466;BME280;5280;42.600;23.556;2022-12-18T07:53:00;94544.56;;;3.80;100.00
10466;BME280;5280;42.600;23.556;2022-12-18T07:55:28;94534.28;;;3.76;100.00
10466;BME280;5280;42.600;23.556;2022-12-18T07:57:57;94574.56;;;3.95;100.00
10466;BME280;5280;42.600;23.556;2022-12-18T08:00:23;94584.28;;;3.92;100.00
10466;BME280;5280;42.600;23.556;2022-12-18T08:02:50;94581.63;;;3.93;100.00
10466;BME280;5280;42.600;23.556;2022-12-18T08:05:17;94591.28;;;3.91;100.00
10466;BME280;5280;42.600;23.556;2022-12-18T08:07:44;94575.91;;;3.82;100.00
10466;BME280;5280;42.600;23.556;2022-12-18T08:10:11;94600.72;;;3.95;100.00
10466;BME280;5280;42.600;23.556;2022-12-18T08:12:38;94587.84;;;3.89;100.00
10466;BME280;5280;42.600;23.556;2022-12-18T08:15:07;94573.25;;;3.83;100.00
10466;BME280;5280;42.600;23.556;2022-12-18T08:17:34;94595.59;;;3.92;100.00
10466;BME280;5280;42.600;23.556;2022-12-18T08:20:01;94574.56;;;3.70;100.00
10466;BME280;5280;42.600;23.556;2022-12-18T08:22:30;94555.13;;;3.53;100.00
10466;BME280;5280;42.600;23.556;2022-12-18T08:24:57;94614.94;;;3.88;100.00
10466;BME280;5280;42.600;23.556;2022-12-18T08:27:23;94609.16;;;3.78;100.00
10466;BME280;5280;42.600;23.556;2022-12-18T08:29:50;94624.41;;;3.90;100.00
10466;BME280;5280;42.600;23.556;2022-12-18T08:32:18;94619.53;;;3.80;100.00
10466;BME280;5280;42.600;23.556;2022-12-18T08:34:45;94624.44;;;3.89;100.00
10466;BME280;5280;42.600;23.556;2022-12-18T08:37:12;94622.94;;;3.83;100.00
10466;BME280;5280;42.600;23.556;2022-12-18T08:39:39;94621.25;;;3.81;100.00
10466;BME280;5280;42.600;23.556;2022-12-18T08:42:05;94631.56;;;3.85;100.00
10466;BME280;5280;42.600;23.556;2022-12-18T08:44:50;94603.28;;;3.72;100.00
10466;BME280;5280;42.600;23.556;2022-12-18T08:47:18;94624.88;;;3.77;100.00
10466;BME280;5280;42.600;23.556;2022-12-18T08:49:45;94616.34;;;3.72;100.00
10466;BME280;5280;42.600;23.556;2022-12-18T08:52:14;94629.06;;;3.82;100.00
10466;BME280;5280;42.600;23.556;2022-12-18T08:54:41;94629.78;;;3.86;100.00
10466;BME280;5280;42.600;23.556;2022-12-18T08:57:08;94601.56;;;3.71;100.00
10466;BME280;5280;42.600;23.556;2022-12-18T08:59:34;94621.38;;;3.78;100.00
10466;BME280;5280;42.600;23.556;2022-12-18T09:02:01;94630.91;;;3.79;100.00
10466;BME280;5280;42.600;23.556;2022-12-18T09:04:29;94636.34;;;3.73;100.00
10466;BME280;5280;42.600;23.556;2022-12-18T09:06:56;94628.69;;;3.67;100.00
10466;BME280;5280;42.600;23.556;2022-12-18T09:09:23;94615.94;;;3.58;100.00
10466;BME280;5280;42.600;23.556;2022-12-18T09:11:49;94629.44;;;3.70;100.00
10466;BME280;5280;42.600;23.556;2022-12-18T09:14:16;94632.81;;;3.74;100.00
10466;BME280;5280;42.600;23.556;2022-12-18T09:16:43;94635.34;;;3.77;100.00
10466;BME280;5280;42.600;23.556;2022-12-18T09:19:10;94633.75;;;3.73;100.00
10466;BME280;5280;42.600;23.556;2022-12-18T09:21:38;94631.06;;;3.74;100.00
10466;BME280;5280;42.600;23.556;2022-12-18T09:24:06;94641.31;;;3.80;100.00
10466;BME280;5280;42.600;23.556;2022-12-18T09:26:32;94601.88;;;3.62;100.00
10466;BME280;5280;42.600;23.556;2022-12-18T09:28:59;94631.75;;;3.79;100.00
10466;BME280;5280;42.600;23.556;2022-12-18T09:31:26;94622.47;;;3.71;100.00
10466;BME280;5280;42.600;23.556;2022-12-18T09:33:54;94620.59;;;3.74;100.00
10466;BME280;5280;42.600;23.556;2022-12-18T09:36:21;94634.53;;;3.75;100.00
10466;BME280;5280;42.600;23.556;2022-12-18T09:38:49;94639.66;;;3.78;100.00
10466;BME280;5280;42.600;23.556;2022-12-18T09:41:37;94635.03;;;3.86;100.00
10466;BME280;5280;42.600;23.556;2022-12-18T09:44:13;94577.13;;;3.45;100.00
10466;BME280;5280;42.600;23.556;2022-12-18T09:46:45;94641.06;;;3.88;100.00
10466;BME280;5280;42.600;23.556;2022-12-18T09:49:16;94639.16;;;3.93;100.00
10466;BME280;5280;42.600;23.556;2022-12-18T09:51:46;94631.59;;;3.84;100.00
10466;BME280;5280;42.600;23.556;2022-12-18T09:54:20;94648.50;;;4.00;100.00
10466;BME280;5280;42.600;23.556;2022-12-18T09:56:48;94632.84;;;3.99;100.00
10466;BME280;5280;42.600;23.556;2022-12-18T09:59:21;94560.78;;;3.65;100.00
10466;BME280;5280;42.600;23.556;2022-12-18T10:01:49;94631.69;;;4.07;100.00
10466;BME280;5280;42.600;23.556;2022-12-18T10:04:16;94608.13;;;3.82;100.00
10466;BME280;5280;42.600;23.556;2022-12-18T10:06:48;94632.75;;;4.02;100.00
10466;BME280;5280;42.600;23.556;2022-12-18T10:09:27;94620.91;;;3.92;100.00
10466;BME280;5280;42.600;23.556;2022-12-18T10:12:04;94620.78;;;3.95;100.00
10466;BME280;5280;42.600;23.556;2022-12-18T10:14:39;94625.81;;;4.01;100.00
10466;BME280;5280;42.600;23.556;2022-12-18T10:17:16;94622.81;;;4.11;100.00
10466;BME280;5280;42.600;23.556;2022-12-18T10:19:48;94619.34;;;4.11;99.75
10466;BME280;5280;42.600;23.556;2022-12-18T10:22:26;94621.13;;;4.10;99.86
10466;BME280;5280;42.600;23.556;2022-12-18T10:25:04;94612.88;;;3.96;99.14
10466;BME280;5280;42.600;23.556;2022-12-18T10:27:33;94629.28;;;4.01;99.61
10466;BME280;5280;42.600;23.556;2022-12-18T10:30:03;94628.47;;;3.99;100.00
10466;BME280;5280;42.600;23.556;2022-12-18T10:32:30;94630.03;;;4.05;100.00
10466;BME280;5280;42.600;23.556;2022-12-18T10:34:58;94631.69;;;4.07;100.00
10466;BME280;5280;42.600;23.556;2022-12-18T10:37:26;94622.94;;;4.08;100.00
10466;BME280;5280;42.600;23.556;2022-12-18T10:40:10;94620.16;;;4.13;99.86
10466;BME280;5280;42.600;23.556;2022-12-18T10:42:37;94622.78;;;4.13;98.68
10466;BME280;5280;42.600;23.556;2022-12-18T10:45:09;94616.31;;;4.23;100.00
10466;BME280;5280;42.600;23.556;2022-12-18T10:47:36;94610.22;;;4.22;100.00
10466;BME280;5280;42.600;23.556;2022-12-18T10:50:18;94612.72;;;4.25;100.00
10466;BME280;5280;42.600;23.556;2022-12-18T10:52:53;94601.19;;;4.06;96.49
10466;BME280;5280;42.600;23.556;2022-12-18T10:55:22;94612.25;;;4.14;97.33
10466;BME280;5280;42.600;23.556;2022-12-18T10:57:50;94617.78;;;4.05;95.56
10466;BME280;5280;42.600;23.556;2022-12-18T11:00:23;94615.19;;;4.05;96.93
10466;BME280;5280;42.600;23.556;2022-12-18T11:02:51;94623.88;;;4.06;97.11
10466;BME280;5280;42.600;23.556;2022-12-18T11:05:29;94621.44;;;4.01;96.90
10466;BME280;5280;42.600;23.556;2022-12-18T11:07:57;94617.06;;;4.02;97.28
10466;BME280;5280;42.600;23.556;2022-12-18T11:10:30;94611.66;;;4.06;98.43
10466;BME280;5280;42.600;23.556;2022-12-18T11:13:09;94610.06;;;4.02;97.34
10466;BME280;5280;42.600;23.556;2022-12-18T11:15:40;94611.66;;;4.06;99.53
10466;BME280;5280;42.600;23.556;2022-12-18T11:18:16;94627.31;;;4.08;98.11
10466;BME280;5280;42.600;23.556;2022-12-18T11:20:50;94613.78;;;3.95;95.84
10466;BME280;5280;42.600;23.556;2022-12-18T11:23:18;94552.00;;;3.68;97.67
10466;BME280;5280;42.600;23.556;2022-12-18T11:25:53;94626.78;;;3.98;95.97
10466;BME280;5280;42.600;23.556;2022-12-18T11:28:46;94626.78;;;3.98;97.11
10466;BME280;5280;42.600;23.556;2022-12-18T11:31:20;94627.59;;;3.99;98.19
10466;BME280;5280;42.600;23.556;2022-12-18T11:33:52;94630.19;;;4.00;97.97
10466;BME280;5280;42.600;23.556;2022-12-18T11:36:21;94589.69;;;3.61;98.55
10466;BME280;5280;42.600;23.556;2022-12-18T11:38:54;94631.34;;;3.92;99.28
10466;BME280;5280;42.600;23.556;2022-12-18T11:41:29;94607.53;;;3.74;97.95
10466;BME280;5280;42.600;23.556;2022-12-18T11:44:15;94632.28;;;3.89;99.14
10466;BME280;5280;42.600;23.556;2022-12-18T11:46:49;94635.69;;;3.93;97.77
10466;BME280;5280;42.600;23.556;2022-12-18T11:49:22;94639.09;;;3.95;98.35
10466;BME280;5280;42.600;23.556;2022-12-18T11:51:56;94592.81;;;3.72;98.48
10466;BME280;5280;42.600;23.556;2022-12-18T11:54:24;94633.00;;;3.94;98.16
10466;BME280;5280;42.600;23.556;2022-12-18T11:56:58;94630.38;;;3.94;98.18
10466;BME280;5280;42.600;23.556;2022-12-18T11:59:35;94635.22;;;4.06;99.35
10466;BME280;5280;42.600;23.556;2022-12-18T12:02:26;94630.72;;;4.10;97.57
10466;BME280;5280;42.600;23.556;2022-12-18T12:05:15;94622.94;;;4.08;95.81
10466;BME280;5280;42.600;23.556;2022-12-18T12:07:50;94593.16;;;3.87;94.06
10466;BME280;5280;42.600;23.556;2022-12-18T12:10:31;94619.88;;;3.96;95.59
10466;BME280;5280;42.600;23.556;2022-12-18T12:13:18;94599.13;;;3.91;94.50
10466;BME280;5280;42.600;23.556;2022-12-18T12:15:55;94561.75;;;3.63;96.26
10466;BME280;5280;42.600;23.556;2022-12-18T12:18:35;94626.50;;;4.06;95.27
10466;BME280;5280;42.600;23.556;2022-12-18T12:21:14;94627.47;;;4.03;96.42
10466;BME280;5280;42.600;23.556;2022-12-18T12:23:46;94616.91;;;4.06;95.34
10466;BME280;5280;42.600;23.556;2022-12-18T12:26:24;94627.84;;;4.17;94.76
10466;BME280;5280;42.600;23.556;2022-12-18T12:29:04;94622.72;;;4.14;95.99
10466;BME280;5280;42.600;23.556;2022-12-18T12:31:42;94631.25;;;4.19;94.23
10466;BME280;5280;42.600;23.556;2022-12-18T12:34:18;94621.03;;;4.13;93.54
10466;BME280;5280;42.600;23.556;2022-12-18T12:36:57;94617.38;;;4.17;93.23
10466;BME280;5280;42.600;23.556;2022-12-18T12:39:31;94616.56;;;4.15;91.73
10466;BME280;5280;42.600;23.556;2022-12-18T12:41:59;94618.41;;;4.13;90.20
10466;BME280;5280;42.600;23.556;2022-12-18T12:44:48;94640.13;;;4.15;91.16
10466;BME280;5280;42.600;23.556;2022-12-18T12:47:21;94614.50;;;4.00;89.68
10466;BME280;5280;42.600;23.556;2022-12-18T12:49:51;94603.16;;;4.00;91.87
10466;BME280;5280;42.600;23.556;2022-12-18T12:52:27;94620.88;;;4.18;93.95
10466;BME280;5280;42.600;23.556;2022-12-18T12:54:58;94587.44;;;4.01;92.56
10466;BME280;5280;42.600;23.556;2022-12-18T12:57:31;94639.25;;;4.40;92.05
10466;BME280;5280;42.600;23.556;2022-12-18T13:00:05;94654.00;;;4.42;92.31
10466;BME280;5280;42.600;23.556;2022-12-18T13:02:36;94650.53;;;4.42;91.85
10466;BME280;5280;42.600;23.556;2022-12-18T13:05:14;94639.38;;;4.37;93.60
10466;BME280;5280;42.600;23.556;2022-12-18T13:07:51;94659.94;;;4.47;92.16
10466;BME280;5280;42.600;23.556;2022-12-18T13:10:31;94650.63;;;4.39;93.11
10466;BME280;5280;42.600;23.556;2022-12-18T13:13:00;94659.16;;;4.44;92.76
10466;BME280;5280;42.600;23.556;2022-12-18T13:15:34;94663.63;;;4.42;93.00
10466;BME280;5280;42.600;23.556;2022-12-18T13:18:10;94664.47;;;4.42;92.71